Kearns, Utah
Current Conditions -  °F | °C
As of 4:53 PM on Monday 24 Nov 2014 (Local Time) from KSLC Reporting Station
Few Clouds Few Clouds  
Wind Chill: 33°   Ceiling: Unl
Heat Index: 38°   Visibility: 10mi
Dew Point: 23°   Wind: 6mph
Humidity: 55%   Direction: 230°SW
Pressure: 30.4"   Gusts: NA
Location:  40.65°N, 111.96°W
Report Text: KSLC 242353Z 23005KT 10SM FEW060 FEW200 03/M05 A3040 RMK AO2 SLP300 T00331050 10056 20033 51011
Loading
Personal Weather Stations






























Interactive Weather Map New forecast layout! Learn more

10-Day Weather Forecast

Advertisements
Track Severe Weather on mobile